createdAt,value
2023-08-15T00:00:36.089Z,21.99
2023-08-15T00:03:02.796Z,21.99
2023-08-15T00:05:29.569Z,21.96
2023-08-15T00:07:56.208Z,21.90
2023-08-15T00:10:22.767Z,21.90
2023-08-15T00:12:49.400Z,21.82
2023-08-15T00:15:16.076Z,21.74
2023-08-15T00:17:42.936Z,21.71
2023-08-15T00:20:10.283Z,21.68
2023-08-15T00:22:36.821Z,21.71
2023-08-15T00:25:03.961Z,21.62
2023-08-15T00:27:30.522Z,21.64
2023-08-15T00:29:57.040Z,21.54
2023-08-15T00:32:23.835Z,21.57
2023-08-15T00:34:50.491Z,21.55
2023-08-15T00:37:17.081Z,21.60
2023-08-15T00:39:43.877Z,21.61
2023-08-15T00:42:10.511Z,21.60
2023-08-15T00:44:42.086Z,21.61
2023-08-15T00:47:08.958Z,21.71
2023-08-15T00:49:35.937Z,21.75
2023-08-15T00:52:03.799Z,21.78
2023-08-15T00:54:31.065Z,21.77
2023-08-15T00:56:57.904Z,21.72
2023-08-15T00:59:24.798Z,21.72
2023-08-15T01:01:51.486Z,21.71
2023-08-15T01:04:18.655Z,21.75
2023-08-15T01:06:45.211Z,21.93
2023-08-15T01:09:11.805Z,21.99
2023-08-15T01:12:05.411Z,21.96
2023-08-15T01:14:41.202Z,21.72
2023-08-15T01:17:11.820Z,21.67
2023-08-15T01:19:48.150Z,21.61
2023-08-15T01:22:28.770Z,21.42
2023-08-15T01:24:55.295Z,21.48
2023-08-15T01:27:22.036Z,21.37
2023-08-15T01:29:49.195Z,21.44
2023-08-15T01:32:24.735Z,21.61
2023-08-15T01:35:00.796Z,21.42
2023-08-15T01:37:31.234Z,21.55
2023-08-15T01:40:01.746Z,21.57
2023-08-15T01:42:28.849Z,21.54
2023-08-15T01:44:56.837Z,21.72
2023-08-15T01:47:23.709Z,21.81
2023-08-15T01:49:50.466Z,21.67
2023-08-15T01:52:17.101Z,21.65
2023-08-15T01:54:43.684Z,21.61
2023-08-15T01:57:10.219Z,21.52
2023-08-15T01:59:36.746Z,21.58
2023-08-15T02:02:07.364Z,21.55
2023-08-15T02:04:34.376Z,21.62
2023-08-15T02:07:00.910Z,21.54
2023-08-15T02:09:27.673Z,21.55
2023-08-15T02:11:54.311Z,21.61
2023-08-15T02:14:20.846Z,21.74
2023-08-15T02:16:47.405Z,21.69
2023-08-15T02:19:16.944Z,21.74
2023-08-15T02:21:43.511Z,21.86
2023-08-15T02:24:10.536Z,21.79
2023-08-15T02:26:37.197Z,21.89
2023-08-15T02:29:04.418Z,21.86
2023-08-15T02:31:31.945Z,22.03
2023-08-15T02:33:58.572Z,21.64
2023-08-15T02:36:25.105Z,21.14
2023-08-15T02:38:51.906Z,20.84
2023-08-15T02:41:18.614Z,20.73
2023-08-15T02:43:45.249Z,20.79
2023-08-15T02:46:11.836Z,20.71
2023-08-15T02:48:38.471Z,20.72
2023-08-15T02:51:08.685Z,20.59
2023-08-15T02:53:36.417Z,20.59
2023-08-15T02:56:03.267Z,20.65
2023-08-15T02:58:30.108Z,20.63
2023-08-15T03:00:56.920Z,20.62
2023-08-15T03:03:23.710Z,20.63
2023-08-15T03:05:50.241Z,20.71
2023-08-15T03:08:16.837Z,20.76
2023-08-15T03:10:43.719Z,20.75
2023-08-15T03:13:10.315Z,20.77
2023-08-15T03:15:37.536Z,20.62
2023-08-15T03:18:04.330Z,20.62
2023-08-15T03:20:31.096Z,20.61
2023-08-15T03:22:57.699Z,20.75
2023-08-15T03:25:24.262Z,20.86
2023-08-15T03:27:50.939Z,20.87
2023-08-15T03:30:17.486Z,20.80
2023-08-15T03:32:44.092Z,20.80
2023-08-15T03:35:10.638Z,20.94
2023-08-15T03:37:37.245Z,20.93
2023-08-15T03:40:05.142Z,20.90
2023-08-15T03:42:31.847Z,20.86
2023-08-15T03:44:58.414Z,20.66
2023-08-15T03:47:25.181Z,20.61
2023-08-15T03:49:51.832Z,20.53
2023-08-15T03:52:18.520Z,20.56
2023-08-15T03:54:45.243Z,20.52
2023-08-15T03:57:11.884Z,20.51
2023-08-15T03:59:38.555Z,20.49
2023-08-15T04:02:05.141Z,20.52
2023-08-15T04:04:31.716Z,20.58
2023-08-15T04:06:58.615Z,20.55
2023-08-15T04:09:25.172Z,20.61
2023-08-15T04:11:51.843Z,20.71
2023-08-15T04:14:18.372Z,20.56
2023-08-15T04:19:11.387Z,20.53
2023-08-15T04:21:37.943Z,20.58
2023-08-15T04:24:04.793Z,20.59
2023-08-15T04:26:32.023Z,20.56
2023-08-15T04:28:59.008Z,20.58
2023-08-15T04:31:25.763Z,20.53
2023-08-15T04:33:52.465Z,20.53
2023-08-15T04:36:18.963Z,20.55
2023-08-15T04:38:45.453Z,20.51
2023-08-15T04:41:12.309Z,20.53
2023-08-15T04:43:38.838Z,20.49
2023-08-15T04:46:05.501Z,20.51
2023-08-15T04:48:32.098Z,20.56
2023-08-15T04:50:58.700Z,20.53
2023-08-15T04:53:25.308Z,20.56
2023-08-15T04:55:52.007Z,20.55
2023-08-15T04:58:18.546Z,20.51
2023-08-15T05:00:45.545Z,20.59
2023-08-15T05:03:12.283Z,20.53
2023-08-15T05:05:38.957Z,20.58
2023-08-15T05:08:07.761Z,20.53
2023-08-15T05:10:34.404Z,20.69
2023-08-15T05:13:01.294Z,20.62
2023-08-15T05:15:28.924Z,20.52
2023-08-15T05:17:55.641Z,20.53
2023-08-15T05:20:22.253Z,20.48
2023-08-15T05:22:49.618Z,20.42
2023-08-15T05:25:16.291Z,20.45
2023-08-15T05:27:42.905Z,20.53
2023-08-15T05:30:10.228Z,20.53
2023-08-15T05:32:36.945Z,20.38
2023-08-15T05:35:04.131Z,20.45
2023-08-15T05:37:30.698Z,20.34
2023-08-15T05:39:57.393Z,20.34
2023-08-15T05:42:24.090Z,20.22
2023-08-15T05:44:50.773Z,20.32
2023-08-15T05:47:17.348Z,20.26
2023-08-15T05:49:44.104Z,20.20
2023-08-15T05:52:11.058Z,20.22
2023-08-15T05:54:37.964Z,20.21
2023-08-15T05:57:05.371Z,20.31
2023-08-15T05:59:32.025Z,20.32
2023-08-15T06:01:59.751Z,20.39
2023-08-15T06:04:26.395Z,20.44
2023-08-15T06:06:53.226Z,20.44
2023-08-15T06:09:19.894Z,20.31
2023-08-15T06:11:46.406Z,20.66
2023-08-15T06:14:13.125Z,20.63
2023-08-15T06:16:39.740Z,20.41
2023-08-15T06:19:06.589Z,20.75
2023-08-15T06:21:33.204Z,20.61
2023-08-15T06:23:59.722Z,20.75
2023-08-15T06:26:26.505Z,20.62
2023-08-15T06:28:53.061Z,20.71
2023-08-15T06:32:36.104Z,20.59
2023-08-15T06:35:06.688Z,20.80
2023-08-15T06:37:33.786Z,20.84
2023-08-15T06:40:00.497Z,20.93
2023-08-15T06:42:27.089Z,21.32
2023-08-15T06:45:06.613Z,21.20
2023-08-15T06:47:33.261Z,21.07
2023-08-15T06:49:59.871Z,21.27
2023-08-15T06:52:26.408Z,21.23
2023-08-15T06:54:53.006Z,21.40
2023-08-15T06:57:19.850Z,21.30
2023-08-15T06:59:46.663Z,21.34
2023-08-15T07:02:13.363Z,21.34
2023-08-15T07:04:41.642Z,21.21
2023-08-15T07:07:12.892Z,21.26
2023-08-15T07:09:39.944Z,21.24
2023-08-15T07:12:06.857Z,21.11
2023-08-15T07:14:34.078Z,21.16
2023-08-15T07:17:01.755Z,21.23
2023-08-15T07:19:28.513Z,21.40
2023-08-15T07:21:55.086Z,21.42
2023-08-15T07:24:22.635Z,21.48
2023-08-15T07:26:49.116Z,21.48
2023-08-15T07:29:15.882Z,21.72
2023-08-15T07:31:42.501Z,21.83
2023-08-15T07:34:09.295Z,21.93
2023-08-15T07:36:35.941Z,22.22
2023-08-15T07:39:02.535Z,22.36
2023-08-15T07:41:29.109Z,22.15
2023-08-15T07:43:55.976Z,22.35
2023-08-15T07:46:22.690Z,22.44
2023-08-15T07:48:49.469Z,22.18
2023-08-15T07:51:16.301Z,22.16
2023-08-15T07:53:42.905Z,22.19
2023-08-15T07:56:09.477Z,22.10
2023-08-15T07:58:37.439Z,21.93
2023-08-15T08:01:04.457Z,21.81
2023-08-15T08:03:31.224Z,21.60
2023-08-15T08:05:57.820Z,21.71
2023-08-15T08:08:24.501Z,21.74
2023-08-15T08:10:51.104Z,21.95
2023-08-15T08:13:20.424Z,21.78
2023-08-15T08:15:47.373Z,21.82
2023-08-15T08:18:14.117Z,22.00
2023-08-15T08:20:40.824Z,22.02
2023-08-15T08:23:07.837Z,22.08
2023-08-15T08:25:34.327Z,22.46
2023-08-15T08:28:00.867Z,22.84
2023-08-15T08:30:29.709Z,22.35
2023-08-15T08:32:57.375Z,22.43
2023-08-15T08:35:23.978Z,22.77
2023-08-15T08:37:51.175Z,22.92
2023-08-15T08:40:18.601Z,23.11
2023-08-15T08:42:46.649Z,22.71
2023-08-15T08:45:13.507Z,22.53
2023-08-15T08:47:41.331Z,22.25
2023-08-15T08:50:10.758Z,22.26
2023-08-15T08:52:42.281Z,22.12
2023-08-15T08:55:12.792Z,22.00
2023-08-15T08:57:40.962Z,22.08
2023-08-15T09:00:11.125Z,21.96
2023-08-15T09:02:37.827Z,22.12
2023-08-15T09:05:06.699Z,22.32
2023-08-15T09:07:34.344Z,22.61
2023-08-15T09:10:01.639Z,22.76
2023-08-15T09:12:41.158Z,22.97
2023-08-15T09:15:09.717Z,23.04
2023-08-15T09:17:38.278Z,23.24
2023-08-15T09:20:18.726Z,23.10
2023-08-15T09:22:47.436Z,22.90
2023-08-15T09:25:16.339Z,23.15
2023-08-15T09:27:43.796Z,22.70
2023-08-15T09:30:12.313Z,22.39
2023-08-15T09:32:43.221Z,22.85
2023-08-15T09:35:11.394Z,23.29
2023-08-15T09:37:48.766Z,23.45
2023-08-15T09:40:24.276Z,22.98
2023-08-15T09:42:54.934Z,23.10
2023-08-15T09:45:21.858Z,23.02
2023-08-15T09:47:48.613Z,23.56
2023-08-15T09:50:16.953Z,23.02
2023-08-15T09:52:45.413Z,23.47
2023-08-15T09:55:14.539Z,23.46
2023-08-15T09:57:42.856Z,23.74
2023-08-15T10:00:13.479Z,23.59
2023-08-15T10:03:07.612Z,23.26
2023-08-15T10:05:35.232Z,23.35
2023-08-15T10:08:02.886Z,23.67
2023-08-15T10:10:32.194Z,23.82
2023-08-15T10:12:59.925Z,24.10
2023-08-15T10:15:28.919Z,24.55
2023-08-15T10:17:56.918Z,24.41
2023-08-15T10:20:23.688Z,25.70
2023-08-15T10:22:54.094Z,27.08
2023-08-15T10:25:23.560Z,25.94
2023-08-15T10:27:52.740Z,25.67
2023-08-15T10:30:34.512Z,25.87
2023-08-15T10:33:13.191Z,25.67
2023-08-15T10:35:53.340Z,25.60
2023-08-15T10:38:31.774Z,26.76
2023-08-15T10:41:03.511Z,27.15
2023-08-15T10:43:30.163Z,27.58
2023-08-15T10:46:02.900Z,27.93
2023-08-15T10:48:55.590Z,26.31
2023-08-15T10:51:30.193Z,25.89
2023-08-15T10:54:02.405Z,26.55
2023-08-15T10:56:31.086Z,27.21
2023-08-15T10:58:59.045Z,26.56
2023-08-15T11:01:28.974Z,27.52
2023-08-15T11:03:57.392Z,27.75
2023-08-15T11:06:24.781Z,27.41
2023-08-15T11:08:58.709Z,26.16
2023-08-15T11:11:26.197Z,26.63
2023-08-15T11:13:54.470Z,27.24
2023-08-15T11:16:23.783Z,25.73
2023-08-15T11:18:50.858Z,26.21
2023-08-15T11:21:19.144Z,27.00
2023-08-15T11:23:48.479Z,26.47
2023-08-15T11:26:17.627Z,26.70
2023-08-15T11:28:45.273Z,26.90
2023-08-15T11:33:43.657Z,27.55
2023-08-15T11:36:13.101Z,27.79
2023-08-15T11:38:40.272Z,27.39
2023-08-15T11:41:07.011Z,27.08
2023-08-15T11:43:34.914Z,26.09
2023-08-15T11:46:05.528Z,27.78
2023-08-15T11:48:33.754Z,27.73
2023-08-15T11:51:01.349Z,27.41
2023-08-15T11:53:28.898Z,28.72
2023-08-15T11:55:56.029Z,27.10
2023-08-15T11:58:27.527Z,26.84
2023-08-15T12:01:02.378Z,26.97
2023-08-15T12:03:31.105Z,28.10
2023-08-15T12:05:59.282Z,26.88
2023-08-15T12:08:30.449Z,26.87
2023-08-15T12:10:58.841Z,28.77
2023-08-15T12:13:34.945Z,29.50
2023-08-15T12:16:03.199Z,30.15
2023-08-15T12:18:31.126Z,29.76
2023-08-15T12:20:58.169Z,29.11
2023-08-15T12:23:28.705Z,29.26
2023-08-15T12:25:56.529Z,28.34
2023-08-15T12:28:23.478Z,26.97
2023-08-15T12:30:50.877Z,26.79
2023-08-15T12:33:27.457Z,26.65
2023-08-15T12:36:02.556Z,26.84
2023-08-15T12:38:30.258Z,27.71
2023-08-15T12:40:57.240Z,27.69
2023-08-15T12:43:23.940Z,27.17
2023-08-15T12:45:50.693Z,27.31
2023-08-15T12:48:17.400Z,27.37
2023-08-15T12:50:44.224Z,27.24
2023-08-15T12:53:11.027Z,27.37
2023-08-15T12:55:37.741Z,27.14
2023-08-15T12:58:04.847Z,27.13
2023-08-15T13:00:31.490Z,26.77
2023-08-15T13:02:58.989Z,27.37
2023-08-15T13:05:26.233Z,26.97
2023-08-15T13:07:53.054Z,26.80
2023-08-15T13:10:19.615Z,27.23
2023-08-15T13:12:47.253Z,26.80
2023-08-15T13:15:14.127Z,27.23
2023-08-15T13:17:41.094Z,27.42
2023-08-15T13:20:08.712Z,27.58
2023-08-15T13:22:35.644Z,27.18
2023-08-15T13:25:02.235Z,27.39
2023-08-15T13:27:28.982Z,27.61
2023-08-15T13:29:55.780Z,27.00
2023-08-15T13:32:22.606Z,26.57
2023-08-15T13:34:49.354Z,26.84
2023-08-15T13:37:15.910Z,26.16
2023-08-15T13:39:42.422Z,26.22
2023-08-15T13:42:11.161Z,26.63
2023-08-15T13:44:44.624Z,26.57
2023-08-15T13:47:11.349Z,26.62
2023-08-15T13:49:38.054Z,26.84
2023-08-15T13:52:04.741Z,26.77
2023-08-15T13:54:32.378Z,26.55
2023-08-15T13:56:59.038Z,26.39
2023-08-15T13:59:25.771Z,26.36
2023-08-15T14:01:52.483Z,26.36
2023-08-15T14:04:19.206Z,26.31
2023-08-15T14:06:45.873Z,26.32
2023-08-15T14:09:12.514Z,26.04
2023-08-15T14:11:39.400Z,26.19
2023-08-15T14:14:06.015Z,25.80
2023-08-15T14:16:32.647Z,25.89
2023-08-15T14:18:59.269Z,25.54
2023-08-15T14:21:25.906Z,25.78
2023-08-15T14:23:52.727Z,26.25
2023-08-15T14:26:19.410Z,25.91
2023-08-15T14:28:46.100Z,26.16
2023-08-15T14:31:12.683Z,26.05
2023-08-15T14:33:39.247Z,26.26
2023-08-15T14:36:07.369Z,26.09
2023-08-15T14:38:34.149Z,25.99
2023-08-15T14:41:00.847Z,26.24
2023-08-15T14:43:27.383Z,25.91
2023-08-15T14:45:54.008Z,25.68
2023-08-15T14:48:20.630Z,25.60
2023-08-15T14:50:47.221Z,25.02
2023-08-15T14:53:13.884Z,25.03
2023-08-15T14:55:40.683Z,25.43
2023-08-15T14:58:07.226Z,25.46
2023-08-15T15:00:33.813Z,25.64
2023-08-15T15:03:00.705Z,25.51
2023-08-15T15:05:27.592Z,25.46
2023-08-15T15:07:54.560Z,25.91
2023-08-15T15:10:21.287Z,26.02
2023-08-15T15:12:48.515Z,25.99
2023-08-15T15:15:15.051Z,25.89
2023-08-15T15:17:41.774Z,26.07
2023-08-15T15:20:09.059Z,26.16
2023-08-15T15:22:35.763Z,26.42
2023-08-15T15:25:02.704Z,26.98
2023-08-15T15:27:29.388Z,28.82
2023-08-15T15:29:56.122Z,29.50
2023-08-15T15:32:23.068Z,29.32
2023-08-15T15:34:49.853Z,28.85
2023-08-15T15:37:16.622Z,29.14
2023-08-15T15:39:43.457Z,28.71
2023-08-15T15:42:10.135Z,28.40
2023-08-15T15:44:37.002Z,29.32
2023-08-15T15:47:04.948Z,30.53
2023-08-15T15:49:31.661Z,30.69
2023-08-15T15:51:58.783Z,31.57
2023-08-15T15:54:25.536Z,31.57
2023-08-15T15:56:52.132Z,30.93
2023-08-15T15:59:18.790Z,30.42
2023-08-15T16:01:45.848Z,31.16
2023-08-15T16:04:12.813Z,31.51
2023-08-15T16:06:39.658Z,31.34
2023-08-15T16:09:06.615Z,30.69
2023-08-15T16:11:33.443Z,30.96
2023-08-15T16:14:00.173Z,30.51
2023-08-15T16:16:26.791Z,30.05
2023-08-15T16:18:53.968Z,30.45
2023-08-15T16:21:22.128Z,30.20
2023-08-15T16:23:49.554Z,30.39
2023-08-15T16:26:16.143Z,30.68
2023-08-15T16:28:44.964Z,30.75
2023-08-15T16:31:11.831Z,30.66
2023-08-15T16:33:38.482Z,30.38
2023-08-15T16:36:05.110Z,28.84
2023-08-15T16:38:31.692Z,28.26
2023-08-15T16:40:58.395Z,28.17
2023-08-15T16:43:28.059Z,28.23
2023-08-15T16:45:54.733Z,28.08
2023-08-15T16:48:21.425Z,28.14
2023-08-15T16:50:48.111Z,28.40
2023-08-15T16:53:14.961Z,28.81
2023-08-15T16:55:41.624Z,29.39
2023-08-15T16:58:08.190Z,28.99
2023-08-15T17:00:35.372Z,28.89
2023-08-15T17:03:02.191Z,28.70
2023-08-15T17:05:28.955Z,28.39
2023-08-15T17:07:55.590Z,28.26
2023-08-15T17:10:22.262Z,28.50
2023-08-15T17:12:49.012Z,28.45
2023-08-15T17:15:16.637Z,28.09
2023-08-15T17:17:43.939Z,28.31
2023-08-15T17:20:11.520Z,27.97
2023-08-15T17:22:38.447Z,27.54
2023-08-15T17:25:05.808Z,27.45
2023-08-15T17:27:32.369Z,27.45
2023-08-15T17:29:59.171Z,26.67
2023-08-15T17:32:26.501Z,26.19
2023-08-15T17:34:53.344Z,26.09
2023-08-15T17:37:19.940Z,25.85
2023-08-15T17:39:46.596Z,25.98
2023-08-15T17:42:13.241Z,25.98
2023-08-15T17:44:39.907Z,25.89
2023-08-15T17:47:06.930Z,25.71
2023-08-15T17:49:34.831Z,25.84
2023-08-15T17:52:01.555Z,25.85
2023-08-15T17:57:36.945Z,25.64
2023-08-15T18:00:04.714Z,25.31
2023-08-15T18:02:31.500Z,25.16
2023-08-15T18:04:58.034Z,25.10
2023-08-15T18:07:24.735Z,25.04
2023-08-15T18:09:51.618Z,24.93
2023-08-15T18:12:18.706Z,24.88
2023-08-15T18:14:45.245Z,24.75
2023-08-15T18:17:11.849Z,24.61
2023-08-15T18:19:40.034Z,24.64
2023-08-15T18:22:17.735Z,24.49
2023-08-15T18:24:44.417Z,24.47
2023-08-15T18:27:10.966Z,24.49
2023-08-15T18:29:37.574Z,24.45
2023-08-15T18:32:04.572Z,24.38
2023-08-15T18:34:31.210Z,24.40
2023-08-15T18:36:58.343Z,24.27
2023-08-15T18:39:24.906Z,24.32
2023-08-15T18:41:52.931Z,24.17
2023-08-15T18:44:19.573Z,24.13
2023-08-15T18:46:48.410Z,24.09
2023-08-15T18:49:15.403Z,23.92
2023-08-15T18:51:41.988Z,23.92
2023-08-15T18:54:09.041Z,23.84
2023-08-15T18:56:36.010Z,23.76
2023-08-15T18:59:02.608Z,23.76
2023-08-15T19:01:29.228Z,23.66
2023-08-15T19:03:56.213Z,23.69
2023-08-15T19:06:22.892Z,23.67
2023-08-15T19:08:49.531Z,23.69
2023-08-15T19:11:16.141Z,23.62
2023-08-15T19:13:42.952Z,23.63
2023-08-15T19:16:09.645Z,23.43
2023-08-15T19:18:36.239Z,23.28
2023-08-15T19:21:02.916Z,23.21
2023-08-15T19:23:29.431Z,23.16
2023-08-15T19:25:56.162Z,23.01
2023-08-15T19:28:22.861Z,22.94
2023-08-15T19:30:49.543Z,22.87
2023-08-15T19:33:16.133Z,22.83
2023-08-15T19:35:42.720Z,22.80
2023-08-15T19:38:09.997Z,22.76
2023-08-15T19:40:36.757Z,22.68
2023-08-15T19:43:03.630Z,22.71
2023-08-15T19:45:30.264Z,22.57
2023-08-15T19:47:58.947Z,22.71
2023-08-15T19:50:27.482Z,22.67
2023-08-15T19:52:54.896Z,22.53
2023-08-15T19:55:21.664Z,22.54
2023-08-15T19:57:48.534Z,22.57
2023-08-15T20:00:15.286Z,22.64
2023-08-15T20:02:42.061Z,22.56
2023-08-15T20:05:09.466Z,22.46
2023-08-15T20:07:38.536Z,22.51
2023-08-15T20:10:15.949Z,22.46
2023-08-15T20:12:42.869Z,22.44
2023-08-15T20:15:09.960Z,22.47
2023-08-15T20:17:36.736Z,22.30
2023-08-15T20:20:03.651Z,22.18
2023-08-15T20:22:32.037Z,22.25
2023-08-15T20:24:58.865Z,22.30
2023-08-15T20:27:25.550Z,22.15
2023-08-15T20:29:57.293Z,22.23
2023-08-15T20:32:24.556Z,22.33
2023-08-15T20:34:51.635Z,22.18
2023-08-15T20:37:18.243Z,22.12
2023-08-15T20:39:44.945Z,22.09
2023-08-15T20:42:12.163Z,22.09
2023-08-15T20:44:38.756Z,22.06
2023-08-15T20:47:05.596Z,22.00
2023-08-15T20:49:32.194Z,21.93
2023-08-15T20:51:59.404Z,22.09
2023-08-15T20:54:26.110Z,21.92
2023-08-15T20:56:52.747Z,21.92
2023-08-15T20:59:19.579Z,21.82
2023-08-15T21:01:46.419Z,21.71
2023-08-15T21:04:13.258Z,21.72
2023-08-15T21:06:39.818Z,21.69
2023-08-15T21:09:09.396Z,21.69
2023-08-15T21:11:36.265Z,21.64
2023-08-15T21:14:03.294Z,21.89
2023-08-15T21:16:29.902Z,21.62
2023-08-15T21:18:57.998Z,21.68
2023-08-15T21:21:24.556Z,21.65
2023-08-15T21:23:51.170Z,21.62
2023-08-15T21:26:17.712Z,21.54
2023-08-15T21:28:44.216Z,21.47
2023-08-15T21:31:10.777Z,21.47
2023-08-15T21:33:38.548Z,21.45
2023-08-15T21:36:05.577Z,21.50
2023-08-15T21:38:32.224Z,21.54
2023-08-15T21:40:58.830Z,21.65
2023-08-15T21:43:25.857Z,21.75
2023-08-15T21:45:52.451Z,21.79
2023-08-15T21:48:19.750Z,21.81
2023-08-15T21:50:46.826Z,21.64
2023-08-15T21:53:13.581Z,21.83
2023-08-15T21:55:40.139Z,21.83
2023-08-15T21:58:06.731Z,21.72
2023-08-15T22:00:33.306Z,21.69
2023-08-15T22:03:00.031Z,21.82
2023-08-15T22:05:26.886Z,21.95
2023-08-15T22:07:53.926Z,21.89
2023-08-15T22:10:23.963Z,22.06
2023-08-15T22:12:51.530Z,22.35
2023-08-15T22:15:19.026Z,22.39
2023-08-15T22:17:54.759Z,22.35
2023-08-15T22:20:27.479Z,22.35
2023-08-15T22:22:54.103Z,22.19
2023-08-15T22:25:21.491Z,22.12
2023-08-15T22:27:49.909Z,22.09
2023-08-15T22:30:16.715Z,22.15
2023-08-15T22:32:43.368Z,22.25
2023-08-15T22:35:10.419Z,22.53
2023-08-15T22:37:37.008Z,22.39
2023-08-15T22:40:04.918Z,22.29
2023-08-15T22:42:32.241Z,22.35
2023-08-15T22:44:58.972Z,22.44
2023-08-15T22:47:25.815Z,22.48
2023-08-15T22:49:52.557Z,22.44
2023-08-15T22:52:19.146Z,22.05
2023-08-15T22:54:45.690Z,21.72
2023-08-15T22:57:13.442Z,21.51
2023-08-15T22:59:40.205Z,21.21
2023-08-15T23:02:06.800Z,20.89
2023-08-15T23:04:33.451Z,20.87
2023-08-15T23:07:00.053Z,20.89
2023-08-15T23:09:26.824Z,20.94
2023-08-15T23:11:53.457Z,20.93
2023-08-15T23:14:20.105Z,20.99
2023-08-15T23:16:46.691Z,21.07
2023-08-15T23:19:13.586Z,20.93
2023-08-15T23:21:42.528Z,20.93
2023-08-15T23:24:09.875Z,20.99
2023-08-15T23:26:37.081Z,20.92
2023-08-15T23:29:04.574Z,20.86
2023-08-15T23:31:40.201Z,20.82
2023-08-15T23:34:07.620Z,20.71
2023-08-15T23:36:34.795Z,20.76
2023-08-15T23:39:02.514Z,20.79
2023-08-15T23:41:29.438Z,20.75
2023-08-15T23:43:56.031Z,20.71
2023-08-15T23:46:24.483Z,20.72
2023-08-15T23:48:52.043Z,20.65
2023-08-15T23:51:18.980Z,20.65
2023-08-15T23:53:48.287Z,20.72
2023-08-15T23:56:16.110Z,20.49
